createdAt,value
2022-10-18T00:00:18.240Z,17.00
2022-10-18T00:03:03.742Z,17.10
2022-10-18T00:05:49.822Z,17.20
2022-10-18T00:08:37.219Z,17.10
2022-10-18T00:11:22.622Z,17.30
2022-10-18T00:14:08.390Z,17.30
2022-10-18T00:16:54.094Z,17.40
2022-10-18T00:19:39.536Z,17.30
2022-10-18T00:22:27.471Z,17.20
2022-10-18T00:25:13.628Z,17.20
2022-10-18T00:27:59.431Z,17.40
2022-10-18T00:30:45.069Z,17.40
2022-10-18T00:33:30.798Z,17.50
2022-10-18T00:36:16.541Z,17.70
2022-10-18T00:39:07.015Z,17.80
2022-10-18T00:41:52.452Z,17.80
2022-10-18T00:44:38.575Z,17.80
2022-10-18T00:47:23.827Z,17.70
2022-10-18T00:50:12.904Z,17.70
2022-10-18T00:53:01.781Z,17.70
2022-10-18T00:55:49.957Z,17.70
2022-10-18T00:58:35.753Z,17.70
2022-10-18T01:01:24.473Z,17.70
2022-10-18T01:04:15.648Z,17.70
2022-10-18T01:07:09.110Z,17.70
2022-10-18T01:10:00.065Z,17.70
2022-10-18T01:13:12.477Z,17.70
2022-10-18T01:16:07.280Z,17.80
2022-10-18T01:19:21.478Z,17.80
2022-10-18T01:22:34.757Z,17.70
2022-10-18T01:25:46.235Z,17.70
2022-10-18T01:29:08.614Z,17.70
2022-10-18T01:31:59.706Z,17.70
2022-10-18T01:34:48.945Z,17.70
2022-10-18T01:37:35.536Z,17.70
2022-10-18T01:40:23.664Z,17.60
2022-10-18T01:43:14.606Z,17.70
2022-10-18T01:46:01.632Z,17.60
2022-10-18T01:48:49.793Z,17.60
2022-10-18T01:51:37.325Z,17.60
2022-10-18T01:54:29.895Z,17.50
2022-10-18T01:57:22.789Z,17.50
2022-10-18T02:00:19.271Z,17.50
2022-10-18T02:03:15.206Z,17.50
2022-10-18T02:06:10.409Z,17.50
2022-10-18T02:09:06.414Z,17.50
2022-10-18T02:11:55.019Z,17.50
2022-10-18T02:14:47.339Z,17.40
2022-10-18T02:17:33.363Z,17.40
2022-10-18T02:20:28.447Z,17.40
2022-10-18T02:23:15.200Z,17.40
2022-10-18T02:26:02.120Z,17.40
2022-10-18T02:28:47.985Z,17.40
2022-10-18T02:31:44.300Z,17.40
2022-10-18T02:34:36.705Z,17.40
2022-10-18T02:37:28.203Z,17.40
2022-10-18T02:40:14.844Z,17.30
2022-10-18T02:43:02.530Z,17.30
2022-10-18T02:45:47.926Z,17.30
2022-10-18T02:48:33.487Z,17.30
2022-10-18T02:51:18.683Z,17.30
2022-10-18T02:54:04.466Z,17.30
2022-10-18T02:56:54.380Z,17.20
2022-10-18T02:59:42.174Z,17.30
2022-10-18T03:02:27.651Z,17.20
2022-10-18T03:05:13.521Z,17.20
2022-10-18T03:08:02.334Z,17.20
2022-10-18T03:10:47.734Z,17.10
2022-10-18T03:13:36.323Z,17.10
2022-10-18T03:16:24.454Z,17.10
2022-10-18T03:19:10.390Z,17.10
2022-10-18T03:21:58.469Z,17.00
2022-10-18T03:24:43.802Z,17.10
2022-10-18T03:27:29.654Z,17.00
2022-10-18T03:30:15.419Z,17.00
2022-10-18T03:33:01.040Z,17.00
2022-10-18T03:35:46.870Z,16.90
2022-10-18T03:38:37.206Z,16.90
2022-10-18T03:41:22.641Z,16.80
2022-10-18T03:44:10.612Z,16.80
2022-10-18T03:46:56.224Z,16.80
2022-10-18T03:49:41.761Z,16.80
2022-10-18T03:52:29.686Z,16.70
2022-10-18T03:55:15.828Z,16.70
2022-10-18T03:58:01.204Z,16.70
2022-10-18T04:00:50.036Z,16.70
2022-10-18T04:03:35.539Z,16.70
2022-10-18T04:06:23.986Z,16.60
2022-10-18T04:09:10.605Z,16.60
2022-10-18T04:11:56.087Z,16.50
2022-10-18T04:14:41.852Z,16.50
2022-10-18T04:17:29.875Z,16.40
2022-10-18T04:20:18.383Z,16.40
2022-10-18T04:23:03.741Z,16.40
2022-10-18T04:25:51.681Z,16.30
2022-10-18T04:28:40.115Z,16.30
2022-10-18T04:31:25.682Z,16.30
2022-10-18T04:34:11.343Z,16.30
2022-10-18T04:36:57.128Z,16.20
2022-10-18T04:39:49.845Z,16.20
2022-10-18T04:42:38.459Z,16.20
2022-10-18T04:45:24.229Z,16.20
2022-10-18T04:48:09.619Z,16.20
2022-10-18T04:50:55.156Z,16.10
2022-10-18T04:53:42.601Z,16.10
2022-10-18T04:56:30.439Z,16.10
2022-10-18T04:59:18.255Z,16.00
2022-10-18T05:02:05.544Z,16.00
2022-10-18T05:04:51.690Z,16.00
2022-10-18T05:07:37.630Z,16.00
2022-10-18T05:10:23.049Z,16.00
2022-10-18T05:13:13.803Z,16.00
2022-10-18T05:16:00.336Z,16.00
2022-10-18T05:18:46.293Z,16.00
2022-10-18T05:21:32.349Z,16.00
2022-10-18T05:24:21.965Z,16.00
2022-10-18T05:27:11.110Z,16.00
2022-10-18T05:29:58.907Z,16.00
2022-10-18T05:32:46.723Z,16.00
2022-10-18T05:35:34.533Z,15.90
2022-10-18T05:38:20.077Z,15.90
2022-10-18T05:41:06.081Z,16.00
2022-10-18T05:43:51.666Z,15.90
2022-10-18T05:46:37.167Z,15.90
2022-10-18T05:49:23.391Z,15.90
2022-10-18T05:52:09.073Z,15.90
2022-10-18T05:54:54.805Z,15.90
2022-10-18T05:57:39.997Z,15.90
2022-10-18T06:00:28.425Z,15.90
2022-10-18T06:03:16.493Z,15.80
2022-10-18T06:06:08.342Z,15.80
2022-10-18T06:08:53.676Z,15.80
2022-10-18T06:11:44.458Z,15.90
2022-10-18T06:14:38.367Z,15.80
2022-10-18T06:17:24.619Z,15.80
2022-10-18T06:20:11.358Z,15.80
2022-10-18T06:22:59.391Z,15.90
2022-10-18T06:25:45.548Z,15.90
2022-10-18T06:28:31.212Z,15.90
2022-10-18T06:31:17.553Z,15.90
2022-10-18T06:34:03.807Z,15.90
2022-10-18T06:36:56.396Z,15.80
2022-10-18T06:39:46.076Z,15.80
2022-10-18T06:42:32.233Z,15.80
2022-10-18T06:45:20.490Z,15.90
2022-10-18T06:48:06.311Z,15.90
2022-10-18T06:51:00.237Z,15.90
2022-10-18T06:53:59.254Z,16.00
2022-10-18T06:56:51.717Z,16.20
2022-10-18T06:59:40.064Z,16.20
2022-10-18T07:02:25.793Z,16.20
2022-10-18T07:05:18.098Z,16.10
2022-10-18T07:08:06.419Z,16.10
2022-10-18T07:10:54.751Z,16.10
2022-10-18T07:13:40.485Z,16.10
2022-10-18T07:16:26.604Z,16.20
2022-10-18T07:19:12.672Z,16.20
2022-10-18T07:21:58.334Z,16.20
2022-10-18T07:24:43.610Z,16.20
2022-10-18T07:27:31.912Z,16.30
2022-10-18T07:30:17.843Z,16.30
2022-10-18T07:33:05.876Z,16.40
2022-10-18T07:35:54.590Z,16.40
2022-10-18T07:38:41.041Z,16.40
2022-10-18T07:41:31.849Z,16.50
2022-10-18T07:44:17.385Z,16.50
2022-10-18T07:47:07.626Z,16.60
2022-10-18T07:49:53.171Z,16.70
2022-10-18T07:52:41.639Z,16.80
2022-10-18T07:55:26.967Z,16.70
2022-10-18T07:58:12.405Z,16.60
2022-10-18T08:00:58.107Z,16.60
2022-10-18T08:03:44.237Z,16.60
2022-10-18T08:06:29.547Z,16.60
2022-10-18T08:09:15.131Z,16.60
2022-10-18T08:12:00.581Z,16.60
2022-10-18T08:14:47.064Z,16.60
2022-10-18T08:17:32.833Z,16.50
2022-10-18T08:20:30.318Z,16.50
2022-10-18T08:23:17.311Z,16.60
2022-10-18T08:26:12.803Z,16.50
2022-10-18T08:29:28.079Z,16.50
2022-10-18T08:32:08.863Z,16.50
2022-10-18T08:34:54.576Z,16.60
2022-10-18T08:37:43.657Z,16.50
2022-10-18T08:40:29.431Z,16.50
2022-10-18T08:43:37.030Z,16.50
2022-10-18T08:46:22.852Z,16.40
2022-10-18T08:49:18.271Z,16.30
2022-10-18T08:52:21.486Z,16.20
2022-10-18T08:55:43.409Z,16.00
2022-10-18T08:58:34.680Z,16.10
2022-10-18T09:01:41.952Z,15.90
2022-10-18T09:04:41.840Z,15.90
2022-10-18T09:07:44.110Z,15.80
2022-10-18T09:10:42.614Z,15.90
2022-10-18T09:14:02.812Z,15.80
2022-10-18T09:17:01.726Z,15.80
2022-10-18T09:20:12.126Z,15.80
2022-10-18T09:23:23.097Z,15.80
2022-10-18T09:26:23.456Z,15.80
2022-10-18T09:29:09.114Z,15.80
2022-10-18T09:32:32.457Z,15.80
2022-10-18T09:35:38.312Z,15.80
2022-10-18T09:38:30.892Z,15.70
2022-10-18T09:41:25.831Z,15.60
2022-10-18T09:44:19.761Z,15.70
2022-10-18T09:47:18.317Z,15.70
2022-10-18T09:50:35.978Z,15.70
2022-10-18T09:53:50.484Z,15.80
2022-10-18T09:57:05.239Z,15.90
2022-10-18T09:59:56.974Z,15.80
2022-10-18T10:02:51.884Z,15.80
2022-10-18T10:05:39.907Z,15.80
2022-10-18T10:08:33.361Z,16.00
2022-10-18T10:11:29.260Z,15.90
2022-10-18T10:17:20.810Z,15.80
2022-10-18T10:20:20.669Z,15.80
2022-10-18T10:23:25.059Z,15.80
2022-10-18T10:26:32.097Z,15.80
2022-10-18T10:29:46.944Z,15.80
2022-10-18T10:32:47.482Z,15.90
2022-10-18T10:35:56.333Z,15.80
2022-10-18T10:38:46.580Z,15.90
2022-10-18T10:41:43.569Z,15.80
2022-10-18T10:44:38.254Z,15.80
2022-10-18T10:47:33.884Z,15.90
2022-10-18T10:50:26.911Z,15.90
2022-10-18T10:53:38.202Z,16.00
2022-10-18T10:56:33.540Z,16.20
2022-10-18T10:59:26.781Z,16.20
2022-10-18T11:02:39.548Z,16.20
2022-10-18T11:05:29.865Z,16.30
2022-10-18T11:08:29.320Z,16.40
2022-10-18T11:11:32.072Z,16.20
2022-10-18T11:14:27.635Z,16.20
2022-10-18T11:17:35.989Z,16.20
2022-10-18T11:20:36.811Z,16.30
2022-10-18T11:23:35.897Z,16.30
2022-10-18T11:26:31.151Z,16.40
2022-10-18T11:29:44.759Z,16.40
2022-10-18T11:32:56.717Z,16.40
2022-10-18T11:35:54.324Z,16.50
2022-10-18T11:39:13.455Z,16.50
2022-10-18T11:42:39.995Z,16.40
2022-10-18T11:45:43.642Z,16.00
2022-10-18T11:48:48.043Z,15.90
2022-10-18T11:52:07.284Z,16.00
2022-10-18T11:55:16.569Z,16.10
2022-10-18T11:58:38.183Z,16.30
2022-10-18T12:01:54.888Z,16.40
2022-10-18T12:04:59.828Z,16.30
2022-10-18T12:08:12.402Z,16.40
2022-10-18T12:11:07.691Z,16.30
2022-10-18T12:14:02.352Z,16.40
2022-10-18T12:16:51.322Z,16.50
2022-10-18T12:19:42.802Z,16.50
2022-10-18T12:22:43.099Z,16.60
2022-10-18T12:25:39.521Z,16.60
2022-10-18T12:28:43.830Z,16.50
2022-10-18T12:31:42.412Z,16.60
2022-10-18T12:34:41.776Z,16.50
2022-10-18T12:37:51.849Z,16.40
2022-10-18T12:40:44.810Z,16.50
2022-10-18T12:43:38.107Z,16.50
2022-10-18T12:46:58.460Z,16.50
2022-10-18T12:49:59.986Z,16.50
2022-10-18T12:53:20.285Z,16.50
2022-10-18T12:56:30.135Z,16.70
2022-10-18T12:59:26.277Z,17.00
2022-10-18T13:02:26.883Z,17.10
2022-10-18T13:05:54.475Z,17.10
2022-10-18T13:08:48.217Z,17.00
2022-10-18T13:11:41.037Z,17.00
2022-10-18T13:15:24.270Z,17.00
2022-10-18T13:18:20.835Z,17.00
2022-10-18T13:21:43.801Z,17.10
2022-10-18T13:24:44.276Z,16.90
2022-10-18T13:27:48.669Z,17.10
2022-10-18T13:30:44.122Z,17.30
2022-10-18T13:33:40.882Z,17.50
2022-10-18T13:36:33.692Z,17.80
2022-10-18T13:39:25.938Z,17.90
2022-10-18T13:42:29.001Z,17.80
2022-10-18T13:45:33.454Z,17.80
2022-10-18T13:48:31.509Z,17.80
2022-10-18T13:51:42.475Z,18.10
2022-10-18T13:55:09.904Z,18.40
2022-10-18T13:58:10.620Z,18.50
2022-10-18T14:01:30.600Z,18.30
2022-10-18T14:04:46.671Z,17.90
2022-10-18T14:07:40.140Z,17.40
2022-10-18T14:11:00.875Z,17.30
2022-10-18T14:14:16.574Z,17.20
2022-10-18T14:17:16.866Z,17.90
2022-10-18T14:20:28.752Z,18.20
2022-10-18T14:23:26.078Z,18.20
2022-10-18T14:26:22.847Z,17.80
2022-10-18T14:29:22.993Z,17.20
2022-10-18T14:32:30.030Z,17.40
2022-10-18T14:35:39.075Z,17.10
2022-10-18T14:38:32.191Z,16.80
2022-10-18T14:41:38.523Z,16.60
2022-10-18T14:44:37.250Z,16.40
2022-10-18T14:47:31.282Z,16.30
2022-10-18T14:50:30.466Z,16.10
2022-10-18T14:53:22.091Z,16.00
2022-10-18T14:56:22.121Z,15.80
2022-10-18T14:59:31.840Z,15.70
2022-10-18T15:02:32.722Z,15.70
2022-10-18T15:05:25.421Z,15.70
2022-10-18T15:08:18.059Z,15.70
2022-10-18T15:11:14.323Z,15.90
2022-10-18T15:14:15.811Z,16.00
2022-10-18T15:17:16.756Z,16.30
2022-10-18T15:20:32.670Z,16.30
2022-10-18T15:23:26.918Z,16.10
2022-10-18T15:26:26.712Z,15.80
2022-10-18T15:29:20.289Z,15.60
2022-10-18T15:32:28.926Z,15.40
2022-10-18T15:35:26.541Z,15.30
2022-10-18T15:38:28.141Z,15.50
2022-10-18T15:41:46.667Z,15.30
2022-10-18T15:44:51.472Z,15.20
2022-10-18T15:47:39.871Z,15.00
2022-10-18T15:50:47.488Z,14.90
2022-10-18T15:53:56.346Z,14.70
2022-10-18T15:56:45.218Z,14.60
2022-10-18T15:59:53.596Z,14.60
2022-10-18T16:02:45.261Z,14.50
2022-10-18T16:05:38.445Z,14.50
2022-10-18T16:08:32.340Z,14.30
2022-10-18T16:11:28.334Z,14.20
2022-10-18T16:14:14.354Z,14.10
2022-10-18T16:17:02.573Z,14.10
2022-10-18T16:19:51.670Z,14.10
2022-10-18T16:22:43.800Z,14.10
2022-10-18T16:25:34.830Z,14.10
2022-10-18T16:28:28.107Z,13.90
2022-10-18T16:31:23.635Z,13.90
2022-10-18T16:34:15.730Z,14.00
2022-10-18T16:37:07.921Z,13.80
2022-10-18T16:39:59.583Z,13.80
2022-10-18T16:42:54.341Z,13.60
2022-10-18T16:45:40.995Z,13.70
2022-10-18T16:48:33.248Z,13.60
2022-10-18T16:51:28.426Z,13.70
2022-10-18T16:54:21.260Z,13.60
2022-10-18T16:57:13.757Z,13.70
2022-10-18T17:00:08.041Z,13.70
2022-10-18T17:03:00.503Z,13.60
2022-10-18T17:05:53.331Z,13.60
2022-10-18T17:08:46.151Z,13.60
2022-10-18T17:11:38.116Z,13.70
2022-10-18T17:14:25.919Z,13.60
2022-10-18T17:17:18.010Z,13.70
2022-10-18T17:20:21.849Z,13.60
2022-10-18T17:23:15.740Z,13.50
2022-10-18T17:26:08.658Z,13.50
2022-10-18T17:29:16.534Z,13.50
2022-10-18T17:32:04.006Z,13.10
2022-10-18T17:34:54.940Z,13.10
2022-10-18T17:37:51.315Z,13.20
2022-10-18T17:40:43.196Z,13.20
2022-10-18T17:43:28.873Z,13.30
2022-10-18T17:46:15.347Z,13.20
2022-10-18T17:49:02.193Z,13.20
2022-10-18T17:51:50.271Z,13.20
2022-10-18T17:54:35.764Z,13.10
2022-10-18T17:57:24.002Z,13.20
2022-10-18T18:00:11.916Z,13.10
2022-10-18T18:02:58.998Z,13.10
2022-10-18T18:05:47.474Z,13.00
2022-10-18T18:08:36.758Z,13.00
2022-10-18T18:11:29.408Z,13.00
2022-10-18T18:14:20.106Z,13.00
2022-10-18T18:17:12.427Z,13.00
2022-10-18T18:20:03.201Z,12.90
2022-10-18T18:22:57.037Z,12.90
2022-10-18T18:25:56.784Z,12.80
2022-10-18T18:28:48.303Z,13.00
2022-10-18T18:31:41.371Z,13.10
2022-10-18T18:34:36.610Z,13.10
2022-10-18T18:37:28.924Z,13.20
2022-10-18T18:40:23.896Z,13.30
2022-10-18T18:43:23.166Z,13.40
2022-10-18T18:46:18.346Z,13.30
2022-10-18T18:49:11.697Z,13.30
2022-10-18T18:52:05.005Z,13.20
2022-10-18T18:54:56.518Z,13.20
2022-10-18T18:57:48.519Z,13.20
2022-10-18T19:00:41.863Z,13.20
2022-10-18T19:03:35.686Z,13.00
2022-10-18T19:06:38.988Z,13.00
2022-10-18T19:09:29.917Z,13.00
2022-10-18T19:12:21.432Z,12.90
2022-10-18T19:15:13.520Z,13.00
2022-10-18T19:18:05.527Z,12.90
2022-10-18T19:21:03.276Z,12.80
2022-10-18T19:23:48.556Z,12.70
2022-10-18T19:26:47.302Z,12.70
2022-10-18T19:29:35.502Z,12.70
2022-10-18T19:32:25.807Z,12.70
2022-10-18T19:35:13.821Z,12.60
2022-10-18T19:37:59.300Z,12.50
2022-10-18T19:40:51.609Z,12.50
2022-10-18T19:43:39.863Z,12.30
2022-10-18T19:46:27.862Z,12.40
2022-10-18T19:49:16.686Z,12.30
2022-10-18T19:52:12.437Z,12.30
2022-10-18T19:55:01.336Z,12.20
2022-10-18T19:57:52.966Z,12.10
2022-10-18T20:00:41.178Z,12.10
2022-10-18T20:03:32.940Z,12.00
2022-10-18T20:06:25.099Z,11.90
2022-10-18T20:09:19.703Z,11.90
2022-10-18T20:12:12.246Z,11.90
2022-10-18T20:15:05.480Z,11.90
2022-10-18T20:17:56.430Z,11.90
2022-10-18T20:20:45.810Z,11.80
2022-10-18T20:23:39.758Z,11.80
2022-10-18T20:26:26.163Z,11.90
2022-10-18T20:29:20.879Z,11.80
2022-10-18T20:32:10.227Z,11.80
2022-10-18T20:34:58.073Z,11.80
2022-10-18T20:37:43.881Z,11.70
2022-10-18T20:40:35.419Z,11.70
2022-10-18T20:43:25.945Z,11.60
2022-10-18T20:46:13.336Z,11.60
2022-10-18T20:49:06.674Z,11.60
2022-10-18T20:51:54.011Z,11.60
2022-10-18T20:54:42.112Z,11.60
2022-10-18T20:57:36.568Z,11.50
2022-10-18T21:00:31.691Z,11.60
2022-10-18T21:03:23.996Z,11.60
2022-10-18T21:06:22.339Z,11.60
2022-10-18T21:09:17.135Z,11.50
2022-10-18T21:12:02.855Z,11.50
2022-10-18T21:14:55.091Z,11.50
2022-10-18T21:17:40.804Z,11.40
2022-10-18T21:20:32.847Z,11.40
2022-10-18T21:23:18.768Z,11.30
2022-10-18T21:26:16.663Z,11.30
2022-10-18T21:29:02.577Z,11.40
2022-10-18T21:31:48.518Z,11.50
2022-10-18T21:34:37.899Z,11.50
2022-10-18T21:37:23.255Z,11.50
2022-10-18T21:40:15.562Z,11.40
2022-10-18T21:43:01.264Z,11.40
2022-10-18T21:45:49.954Z,11.30
2022-10-18T21:48:44.263Z,11.30
2022-10-18T21:51:30.309Z,11.30
2022-10-18T21:54:16.595Z,11.20
2022-10-18T21:57:01.909Z,11.20
2022-10-18T21:59:47.450Z,11.10
2022-10-18T22:02:32.941Z,11.00
2022-10-18T22:05:19.096Z,11.00
2022-10-18T22:08:05.577Z,11.00
2022-10-18T22:10:51.234Z,11.00
2022-10-18T22:13:37.152Z,11.00
2022-10-18T22:16:22.970Z,11.10
2022-10-18T22:19:11.545Z,11.20
2022-10-18T22:21:56.803Z,11.30
2022-10-18T22:24:44.528Z,11.40
2022-10-18T22:27:30.983Z,11.40
2022-10-18T22:30:16.963Z,11.50
2022-10-18T22:33:02.690Z,11.60
2022-10-18T22:35:51.245Z,11.60
2022-10-18T22:38:36.617Z,11.70
2022-10-18T22:41:22.062Z,11.80
2022-10-18T22:44:14.930Z,11.90
2022-10-18T22:47:03.669Z,11.90
2022-10-18T22:49:51.679Z,12.00
2022-10-18T22:52:37.292Z,12.00
2022-10-18T22:55:23.357Z,12.00
2022-10-18T22:58:08.482Z,12.00
2022-10-18T23:01:23.842Z,12.20
2022-10-18T23:04:10.488Z,12.20
2022-10-18T23:06:58.661Z,12.20
2022-10-18T23:09:44.125Z,12.20
2022-10-18T23:12:29.694Z,12.20
2022-10-18T23:15:15.302Z,12.20
2022-10-18T23:18:01.588Z,12.20
2022-10-18T23:20:46.977Z,12.20
2022-10-18T23:23:36.651Z,12.30
2022-10-18T23:26:24.999Z,12.30
2022-10-18T23:29:11.600Z,12.40
2022-10-18T23:31:57.316Z,12.30
2022-10-18T23:34:49.161Z,12.30
2022-10-18T23:37:35.121Z,12.30
2022-10-18T23:40:20.700Z,12.30
2022-10-18T23:43:08.271Z,12.40
2022-10-18T23:45:56.125Z,12.40
2022-10-18T23:48:44.594Z,12.40
2022-10-18T23:51:32.355Z,12.40
2022-10-18T23:54:17.755Z,12.40
2022-10-18T23:57:03.792Z,12.30
2022-10-18T23:59:49.395Z,12.30
